Apiliotis — SYVY — position and weather

sailwx.info

Track history (hours):
 
Tides and Currents Weather Stations Pressure Air Temp Water Temp Dewpoint Dewpoint Depression Visibility Wind Speed Wind Dir Waves Ship Positions

Apiliotis

Last reported at 2016-Dec-06 13:14 UTC. Time now 2016-Dec-11 04:18 UTC.
Position N 39°52' E 025°03'.

Length 79 m; draft 4 m.

Type: Ship. MMSI: 240438000.

Date/timePositionNaut miles runAvg speedWind from/ knotsBaromVisibWave heightAir tempDewpointWater temp
2016-Dec-06 13:14N 39°52' E 025°03'0 0.0
2016-Dec-06 09:22N 39°52' E 025°03'8 1.7
2016-Dec-06 04:25N 39°50' E 024°53'3110.9
2016-Dec-06 01:32N 39°36' E 024°16'1110.0
2016-Dec-06 00:28N 39°31' E 024°04'  
2016-Dec-03 00:31N 37°27' E 025°49'1010.6
2016-Dec-02 23:34N 37°29' E 025°36'1111.0
2016-Dec-02 22:33N 37°31' E 025°22'4 4.1
2016-Dec-02 21:33N 37°28' E 025°19'0 0.0
2016-Dec-02 20:33N 37°28' E 025°19'0 0.0
2016-Dec-02 19:33N 37°28' E 025°19'0 0.0
2016-Dec-02 18:33N 37°28' E 025°19'0 0.0
2016-Dec-02 17:33N 37°28' E 025°19'0 0.0
2016-Dec-02 16:33N 37°28' E 025°19'0 0.0
2016-Dec-02 15:33N 37°28' E 025°19'4 4.2
2016-Dec-02 14:33N 37°29' E 025°14'1211.7
2016-Dec-02 13:33N 37°31' E 024°60'1211.8
2016-Dec-02 12:33N 37°32' E 024°45'4012.0
2016-Dec-02 09:11N 37°36' E 023°54'710.5
2016-Dec-02 08:30N 37°39' E 023°45'1112.2
2016-Dec-02 07:33N 37°48' E 023°37'1010.2
2016-Dec-02 06:33N 37°51' E 023°25'1211.8
2016-Dec-02 05:33N 37°54' E 023°10'4 0.3
2016-Dec-01 15:07N 37°55' E 023°05'1 0.2
2016-Dec-01 12:33N 37°55' E 023°06'0 0.3
2016-Dec-01 11:34N 37°55' E 023°06'0 0.0
2016-Dec-01 10:33N 37°55' E 023°06'0 0.1
2016-Dec-01 09:33N 37°55' E 023°06'0 0.0
2016-Dec-01 08:33N 37°55' E 023°06'0 0.0
2016-Dec-01 07:33N 37°55' E 023°06'0 0.0
2016-Dec-01 06:33N 37°55' E 023°06'0 0.0
2016-Dec-01 05:33N 37°55' E 023°06'0 0.0
2016-Dec-01 04:33N 37°55' E 023°06'0 0.1
2016-Dec-01 03:33N 37°55' E 023°06'0 0.0
2016-Dec-01 02:33N 37°55' E 023°06'0 0.0
2016-Dec-01 01:34N 37°54' E 023°06'0 0.0
2016-Dec-01 00:33N 37°55' E 023°06'0 0.0
2016-Nov-30 23:33N 37°55' E 023°06'0 0.0
2016-Nov-30 22:33N 37°55' E 023°06'0 0.0
2016-Nov-30 21:33N 37°55' E 023°06'0 0.0
2016-Nov-30 20:34N 37°55' E 023°06'0 0.0
2016-Nov-30 19:34N 37°55' E 023°06'0 0.0
2016-Nov-30 18:34N 37°55' E 023°06'0 0.0
2016-Nov-30 17:34N 37°55' E 023°06'0 0.1
2016-Nov-30 16:33N 37°55' E 023°06'0 0.0
2016-Nov-30 15:34N 37°55' E 023°06'3 2.8
2016-Nov-30 14:33N 37°54' E 023°09'1010.3
2016-Nov-30 13:33N 37°57' E 023°22'8 8.5
2016-Nov-30 12:33N 38°01' E 023°31'1 1.3
2016-Nov-30 11:33N 38°02' E 023°33'1 0.5
2016-Nov-30 10:33N 38°01' E 023°32'0 0.0
2016-Nov-30 09:33N 38°01' E 023°32'0 0.0
2016-Nov-30 08:33N 38°01' E 023°32'0 0.0
2016-Nov-30 07:33N 38°01' E 023°32'0 0.0
2016-Nov-30 06:33N 38°01' E 023°32'0 0.0
2016-Nov-30 05:33N 38°01' E 023°32'0 0.0
2016-Nov-30 04:33N 38°01' E 023°32'0 0.0
2016-Nov-30 03:34N 38°01' E 023°32'0 0.0
2016-Nov-30 02:33N 38°01' E 023°32'0 0.0
2016-Nov-30 01:33N 38°01' E 023°32'0 0.0
2016-Nov-30 00:33N 38°01' E 023°32'0 0.0
2016-Nov-29 23:33N 38°01' E 023°32'0 0.0
2016-Nov-29 22:33N 38°01' E 023°32'0 0.0
2016-Nov-29 21:33N 38°01' E 023°32'0 0.0
2016-Nov-29 20:33N 38°01' E 023°32'0 0.0
2016-Nov-29 19:33N 38°01' E 023°32'0 0.0
2016-Nov-29 18:33N 38°01' E 023°32'0 0.0
2016-Nov-29 17:33N 38°01' E 023°32'0 0.0
2016-Nov-29 16:33N 38°01' E 023°32'0 0.0
2016-Nov-29 15:33N 38°01' E 023°32'0 0.0
2016-Nov-29 14:33N 38°01' E 023°32'0 0.0
2016-Nov-29 13:33N 38°01' E 023°32'0 0.0
2016-Nov-29 12:33N 38°01' E 023°32'0 0.0
2016-Nov-29 11:33N 38°01' E 023°32'0 0.0
2016-Nov-29 10:34N 38°01' E 023°32'0 0.0
2016-Nov-29 09:33N 38°01' E 023°32'0 0.0
2016-Nov-29 08:33N 38°01' E 023°32'0 0.0
2016-Nov-29 07:33N 38°01' E 023°32'0 0.0
2016-Nov-29 06:33N 38°01' E 023°32'0 0.0
2016-Nov-29 05:33N 38°01' E 023°32'0 0.0
2016-Nov-29 04:33N 38°01' E 023°32'0 0.0
2016-Nov-29 03:33N 38°01' E 023°32'0 0.0
2016-Nov-29 02:33N 38°01' E 023°32'0 0.0
2016-Nov-29 01:33N 38°01' E 023°32'0 0.0
2016-Nov-29 00:33N 38°01' E 023°32'0 0.0
2016-Nov-28 23:33N 38°01' E 023°32'0 0.0
2016-Nov-28 22:33N 38°01' E 023°32'0 0.0
2016-Nov-28 21:33N 38°01' E 023°32'0 0.0
2016-Nov-28 20:33N 38°01' E 023°32'0 0.1
2016-Nov-28 19:33N 38°02' E 023°32'0 0.1
2016-Nov-28 18:33N 38°02' E 023°32'0 0.1
2016-Nov-28 17:33N 38°01' E 023°32'0 0.0
2016-Nov-28 16:33N 38°01' E 023°32'0 0.0
2016-Nov-28 15:33N 38°01' E 023°32'0 0.0
2016-Nov-28 14:33N 38°01' E 023°32'0 0.0
2016-Nov-28 13:33N 38°01' E 023°32'0 0.0
2016-Nov-28 12:33N 38°01' E 023°32'0 0.0
2016-Nov-28 11:33N 38°01' E 023°32'0 0.0
2016-Nov-28 10:33N 38°02' E 023°32'0 0.0
2016-Nov-28 09:33N 38°02' E 023°32'0 0.1
2016-Nov-28 08:33N 38°01' E 023°32'0 0.1
2016-Nov-28 07:33N 38°01' E 023°32'0 0.0
2016-Nov-28 06:33N 38°01' E 023°32'3 3.3
2016-Nov-28 05:33N 37°58' E 023°33'9 8.9
2016-Nov-28 04:33N 37°51' E 023°39'1010.0
2016-Nov-28 03:34N 37°42' E 023°44'1010.4
2016-Nov-28 02:33N 37°31' E 023°47'1211.6
2016-Nov-28 01:32N 37°20' E 023°49'  
Track history (hours):
 
Tides and Currents Weather Stations Pressure Air Temp Water Temp Dewpoint Dewpoint Depression Visibility Wind Speed Wind Dir Waves Ship Positions

Apiliotis

Last reported at 2016-Dec-06 13:14 UTC. Time now 2016-Dec-11 04:18 UTC.
Position N 39°52' E 025°03'.

Length 79 m; draft 4 m.

Type: Ship. MMSI: 240438000.

Date/timePositionNaut miles runAvg speedWind from/ knotsBaromVisibWave heightAir tempDewpointWater temp
2016-Dec-06 13:14N 39°52' E 025°03'0 0.0
2016-Dec-06 09:22N 39°52' E 025°03'8 1.7
2016-Dec-06 04:25N 39°50' E 024°53'3110.9
2016-Dec-06 01:32N 39°36' E 024°16'1110.0
2016-Dec-06 00:28N 39°31' E 024°04'  
2016-Dec-03 00:31N 37°27' E 025°49'1010.6
2016-Dec-02 23:34N 37°29' E 025°36'1111.0
2016-Dec-02 22:33N 37°31' E 025°22'4 4.1
2016-Dec-02 21:33N 37°28' E 025°19'0 0.0
2016-Dec-02 20:33N 37°28' E 025°19'0 0.0
2016-Dec-02 19:33N 37°28' E 025°19'0 0.0
2016-Dec-02 18:33N 37°28' E 025°19'0 0.0
2016-Dec-02 17:33N 37°28' E 025°19'0 0.0
2016-Dec-02 16:33N 37°28' E 025°19'0 0.0
2016-Dec-02 15:33N 37°28' E 025°19'4 4.2
2016-Dec-02 14:33N 37°29' E 025°14'1211.7
2016-Dec-02 13:33N 37°31' E 024°60'1211.8
2016-Dec-02 12:33N 37°32' E 024°45'4012.0
2016-Dec-02 09:11N 37°36' E 023°54'710.5
2016-Dec-02 08:30N 37°39' E 023°45'1112.2
2016-Dec-02 07:33N 37°48' E 023°37'1010.2
2016-Dec-02 06:33N 37°51' E 023°25'1211.8
2016-Dec-02 05:33N 37°54' E 023°10'4 0.3
2016-Dec-01 15:07N 37°55' E 023°05'1 0.2
2016-Dec-01 12:33N 37°55' E 023°06'0 0.3
2016-Dec-01 11:34N 37°55' E 023°06'0 0.0
2016-Dec-01 10:33N 37°55' E 023°06'0 0.1
2016-Dec-01 09:33N 37°55' E 023°06'0 0.0
2016-Dec-01 08:33N 37°55' E 023°06'0 0.0
2016-Dec-01 07:33N 37°55' E 023°06'0 0.0
2016-Dec-01 06:33N 37°55' E 023°06'0 0.0
2016-Dec-01 05:33N 37°55' E 023°06'0 0.0
2016-Dec-01 04:33N 37°55' E 023°06'0 0.1
2016-Dec-01 03:33N 37°55' E 023°06'0 0.0
2016-Dec-01 02:33N 37°55' E 023°06'0 0.0
2016-Dec-01 01:34N 37°54' E 023°06'0 0.0
2016-Dec-01 00:33N 37°55' E 023°06'0 0.0
2016-Nov-30 23:33N 37°55' E 023°06'0 0.0
2016-Nov-30 22:33N 37°55' E 023°06'0 0.0
2016-Nov-30 21:33N 37°55' E 023°06'0 0.0
2016-Nov-30 20:34N 37°55' E 023°06'0 0.0
2016-Nov-30 19:34N 37°55' E 023°06'0 0.0
2016-Nov-30 18:34N 37°55' E 023°06'0 0.0
2016-Nov-30 17:34N 37°55' E 023°06'0 0.1
2016-Nov-30 16:33N 37°55' E 023°06'0 0.0
2016-Nov-30 15:34N 37°55' E 023°06'3 2.8
2016-Nov-30 14:33N 37°54' E 023°09'1010.3
2016-Nov-30 13:33N 37°57' E 023°22'8 8.5
2016-Nov-30 12:33N 38°01' E 023°31'1 1.3
2016-Nov-30 11:33N 38°02' E 023°33'1 0.5
2016-Nov-30 10:33N 38°01' E 023°32'0 0.0
2016-Nov-30 09:33N 38°01' E 023°32'0 0.0
2016-Nov-30 08:33N 38°01' E 023°32'0 0.0
2016-Nov-30 07:33N 38°01' E 023°32'0 0.0
2016-Nov-30 06:33N 38°01' E 023°32'0 0.0
2016-Nov-30 05:33N 38°01' E 023°32'0 0.0
2016-Nov-30 04:33N 38°01' E 023°32'0 0.0
2016-Nov-30 03:34N 38°01' E 023°32'0 0.0
2016-Nov-30 02:33N 38°01' E 023°32'0 0.0
2016-Nov-30 01:33N 38°01' E 023°32'0 0.0
2016-Nov-30 00:33N 38°01' E 023°32'0 0.0
2016-Nov-29 23:33N 38°01' E 023°32'0 0.0
2016-Nov-29 22:33N 38°01' E 023°32'0 0.0
2016-Nov-29 21:33N 38°01' E 023°32'0 0.0
2016-Nov-29 20:33N 38°01' E 023°32'0 0.0
2016-Nov-29 19:33N 38°01' E 023°32'0 0.0
2016-Nov-29 18:33N 38°01' E 023°32'0 0.0
2016-Nov-29 17:33N 38°01' E 023°32'0 0.0
2016-Nov-29 16:33N 38°01' E 023°32'0 0.0
2016-Nov-29 15:33N 38°01' E 023°32'0 0.0
2016-Nov-29 14:33N 38°01' E 023°32'0 0.0
2016-Nov-29 13:33N 38°01' E 023°32'0 0.0
2016-Nov-29 12:33N 38°01' E 023°32'0 0.0
2016-Nov-29 11:33N 38°01' E 023°32'0 0.0
2016-Nov-29 10:34N 38°01' E 023°32'0 0.0
2016-Nov-29 09:33N 38°01' E 023°32'0 0.0
2016-Nov-29 08:33N 38°01' E 023°32'0 0.0
2016-Nov-29 07:33N 38°01' E 023°32'0 0.0
2016-Nov-29 06:33N 38°01' E 023°32'0 0.0
2016-Nov-29 05:33N 38°01' E 023°32'0 0.0
2016-Nov-29 04:33N 38°01' E 023°32'0 0.0
2016-Nov-29 03:33N 38°01' E 023°32'0 0.0
2016-Nov-29 02:33N 38°01' E 023°32'0 0.0
2016-Nov-29 01:33N 38°01' E 023°32'0 0.0
2016-Nov-29 00:33N 38°01' E 023°32'0 0.0
2016-Nov-28 23:33N 38°01' E 023°32'0 0.0
2016-Nov-28 22:33N 38°01' E 023°32'0 0.0
2016-Nov-28 21:33N 38°01' E 023°32'0 0.0
2016-Nov-28 20:33N 38°01' E 023°32'0 0.1
2016-Nov-28 19:33N 38°02' E 023°32'0 0.1
2016-Nov-28 18:33N 38°02' E 023°32'0 0.1
2016-Nov-28 17:33N 38°01' E 023°32'0 0.0
2016-Nov-28 16:33N 38°01' E 023°32'0 0.0
2016-Nov-28 15:33N 38°01' E 023°32'0 0.0
2016-Nov-28 14:33N 38°01' E 023°32'0 0.0
2016-Nov-28 13:33N 38°01' E 023°32'0 0.0
2016-Nov-28 12:33N 38°01' E 023°32'0 0.0
2016-Nov-28 11:33N 38°01' E 023°32'0 0.0
2016-Nov-28 10:33N 38°02' E 023°32'0 0.0
2016-Nov-28 09:33N 38°02' E 023°32'0 0.1
2016-Nov-28 08:33N 38°01' E 023°32'0 0.1
2016-Nov-28 07:33N 38°01' E 023°32'0 0.0
2016-Nov-28 06:33N 38°01' E 023°32'3 3.3
2016-Nov-28 05:33N 37°58' E 023°33'9 8.9
2016-Nov-28 04:33N 37°51' E 023°39'1010.0
2016-Nov-28 03:34N 37°42' E 023°44'1010.4
2016-Nov-28 02:33N 37°31' E 023°47'1211.6
2016-Nov-28 01:32N 37°20' E 023°49'  

Dump ship's entire track history